createdAt,value
2022-09-04T00:00:15.261Z,17.23
2022-09-04T00:03:07.096Z,17.25
2022-09-04T00:05:47.637Z,16.55
2022-09-04T00:08:33.792Z,17.42
2022-09-04T00:11:22.999Z,16.98
2022-09-04T00:14:20.247Z,16.92
2022-09-04T00:17:04.018Z,15.82
2022-09-04T00:19:43.416Z,16.40
2022-09-04T00:22:52.821Z,16.65
2022-09-04T00:25:38.738Z,15.88
2022-09-04T00:28:25.359Z,16.80
2022-09-04T00:31:13.509Z,17.73
2022-09-04T00:34:13.025Z,15.35
2022-09-04T00:36:49.512Z,16.48
2022-09-04T00:39:39.603Z,16.50
2022-09-04T00:42:44.709Z,15.98
2022-09-04T00:45:49.626Z,17.27
2022-09-04T00:48:48.376Z,16.85
2022-09-04T00:51:37.381Z,16.60
2022-09-04T00:54:11.648Z,15.93
2022-09-04T00:56:59.383Z,16.65
2022-09-04T00:59:51.750Z,16.83
2022-09-04T01:02:51.717Z,16.00
2022-09-04T01:05:46.574Z,17.25
2022-09-04T01:08:22.948Z,18.13
2022-09-04T01:11:09.707Z,17.65
2022-09-04T01:13:51.438Z,16.33
2022-09-04T01:16:29.809Z,18.08
2022-09-04T01:19:15.923Z,17.63
2022-09-04T01:22:03.083Z,16.08
2022-09-04T01:24:49.509Z,17.08
2022-09-04T01:27:32.573Z,16.58
2022-09-04T01:30:13.307Z,16.02
2022-09-04T01:32:43.843Z,16.53
2022-09-04T01:35:22.497Z,17.63
2022-09-04T01:38:02.021Z,16.73
2022-09-04T01:40:43.417Z,17.05
2022-09-04T01:43:14.327Z,16.48
2022-09-04T01:45:56.925Z,16.00
2022-09-04T01:48:35.457Z,14.77
2022-09-04T01:51:09.724Z,13.43
2022-09-04T01:53:42.276Z,14.57
2022-09-04T01:56:28.709Z,14.13
2022-09-04T01:59:01.241Z,12.82
2022-09-04T02:01:52.461Z,13.95
2022-09-04T02:04:44.780Z,12.95
2022-09-04T02:07:33.000Z,12.52
2022-09-04T02:10:22.470Z,12.02
2022-09-04T02:13:09.415Z,12.63
2022-09-04T02:15:53.632Z,12.63
2022-09-04T02:18:36.228Z,12.43
2022-09-04T02:21:12.596Z,13.38
2022-09-04T02:23:43.766Z,12.10
2022-09-04T02:26:19.984Z,14.98
2022-09-04T02:29:01.100Z,14.30
2022-09-04T02:31:54.870Z,13.15
2022-09-04T02:35:01.441Z,13.07
2022-09-04T02:37:42.418Z,10.88
2022-09-04T02:40:31.010Z,11.57
2022-09-04T02:43:26.065Z,12.02
2022-09-04T02:46:17.211Z,13.23
2022-09-04T02:48:57.672Z,12.43
2022-09-04T02:51:46.721Z,12.60
2022-09-04T02:54:44.701Z,12.00
2022-09-04T02:57:28.160Z,12.25
2022-09-04T03:00:06.573Z,13.63
2022-09-04T03:02:49.050Z,13.63
2022-09-04T03:05:42.148Z,12.80
2022-09-04T03:08:19.955Z,12.57
2022-09-04T03:10:51.279Z,13.73
2022-09-04T03:13:18.770Z,12.55
2022-09-04T03:15:58.265Z,13.98
2022-09-04T03:18:37.865Z,13.10
2022-09-04T03:21:14.661Z,14.30
2022-09-04T03:23:54.128Z,13.85
2022-09-04T03:26:36.145Z,12.93
2022-09-04T03:29:03.545Z,14.55
2022-09-04T03:31:36.972Z,14.02
2022-09-04T03:34:18.992Z,14.23
2022-09-04T03:36:52.127Z,13.95
2022-09-04T03:39:49.419Z,12.77
2022-09-04T03:42:32.236Z,14.43
2022-09-04T03:45:21.332Z,14.05
2022-09-04T03:48:04.019Z,13.77
2022-09-04T03:50:53.265Z,14.82
2022-09-04T03:53:39.054Z,14.15
2022-09-04T03:56:12.743Z,14.40
2022-09-04T03:58:52.504Z,14.00
2022-09-04T04:01:29.034Z,14.43
2022-09-04T04:03:59.695Z,14.15
2022-09-04T04:06:29.987Z,13.60
2022-09-04T04:09:40.133Z,14.23
2022-09-04T04:12:27.498Z,14.18
2022-09-04T04:15:20.435Z,14.27
2022-09-04T04:18:13.380Z,14.40
2022-09-04T04:21:01.564Z,15.38
2022-09-04T04:23:58.038Z,15.40
2022-09-04T04:26:43.877Z,15.65
2022-09-04T04:29:39.731Z,14.77
2022-09-04T04:32:28.492Z,16.55
2022-09-04T04:35:11.103Z,17.27
2022-09-04T04:38:00.235Z,17.60
2022-09-04T04:40:47.872Z,18.30
2022-09-04T04:43:30.978Z,17.33
2022-09-04T04:46:26.325Z,18.98
2022-09-04T04:49:04.455Z,18.77
2022-09-04T04:52:05.274Z,18.65
2022-09-04T04:54:51.468Z,19.15
2022-09-04T04:57:32.109Z,21.35
2022-09-04T05:00:03.789Z,20.15
2022-09-04T05:03:01.316Z,20.42
2022-09-04T05:05:50.704Z,20.63
2022-09-04T05:08:39.144Z,21.08
2022-09-04T05:11:16.945Z,19.95
2022-09-04T05:14:00.709Z,19.50
2022-09-04T05:17:05.686Z,19.38
2022-09-04T05:19:58.699Z,19.30
2022-09-04T05:22:36.610Z,22.02
2022-09-04T05:25:46.560Z,21.63
2022-09-04T05:28:23.247Z,22.58
2022-09-04T05:31:30.428Z,21.60
2022-09-04T05:34:08.608Z,21.80
2022-09-04T05:37:03.567Z,20.90
2022-09-04T05:40:15.368Z,23.38
2022-09-04T05:42:58.018Z,24.42
2022-09-04T05:45:58.146Z,24.08
2022-09-04T05:48:51.510Z,23.70
2022-09-04T05:51:31.120Z,22.75
2022-09-04T05:54:23.553Z,22.38
2022-09-04T05:57:30.268Z,24.15
2022-09-04T06:00:21.057Z,23.77
2022-09-04T06:03:10.362Z,24.05
2022-09-04T06:05:56.908Z,24.20
2022-09-04T06:08:42.463Z,23.33
2022-09-04T06:11:28.621Z,22.73
2022-09-04T06:14:22.115Z,24.20
2022-09-04T06:17:06.506Z,23.30
2022-09-04T06:19:52.620Z,23.98
2022-09-04T06:22:48.524Z,24.10
2022-09-04T06:25:51.151Z,23.40
2022-09-04T06:28:55.763Z,24.65
2022-09-04T06:31:23.205Z,26.63
2022-09-04T06:34:28.178Z,25.25
2022-09-04T06:37:33.254Z,25.23
2022-09-04T06:40:23.829Z,26.10
2022-09-04T06:43:15.240Z,26.48
2022-09-04T06:46:12.764Z,27.08
2022-09-04T06:48:46.779Z,27.40
2022-09-04T06:51:32.469Z,26.40
2022-09-04T06:54:07.569Z,25.85
2022-09-04T06:56:38.298Z,26.33
2022-09-04T06:59:05.670Z,24.85
2022-09-04T07:01:44.650Z,25.10
2022-09-04T07:04:32.364Z,25.05
2022-09-04T07:07:32.327Z,25.02
2022-09-04T07:10:14.915Z,25.65
2022-09-04T07:13:39.147Z,26.85
2022-09-04T07:16:34.160Z,32.20
2022-09-04T07:19:10.564Z,32.38
2022-09-04T07:21:56.729Z,33.53
2022-09-04T07:24:57.007Z,31.58
2022-09-04T07:27:39.058Z,31.45
2022-09-04T07:30:16.159Z,35.63
2022-09-04T07:33:03.824Z,40.38
2022-09-04T07:36:18.938Z,37.53
2022-09-04T07:39:01.795Z,36.72
2022-09-04T07:41:49.301Z,36.30
2022-09-04T07:44:30.251Z,35.92
2022-09-04T07:47:19.641Z,35.88
2022-09-04T07:49:50.063Z,33.63
2022-09-04T07:52:32.804Z,34.70
2022-09-04T07:55:18.887Z,35.28
2022-09-04T07:58:07.916Z,33.88
2022-09-04T08:01:03.364Z,34.28
2022-09-04T08:03:54.552Z,34.58
2022-09-04T08:06:39.074Z,31.90
2022-09-04T08:09:15.659Z,30.77
2022-09-04T08:12:08.397Z,32.17
2022-09-04T08:14:38.951Z,33.50
2022-09-04T08:17:43.136Z,35.63
2022-09-04T08:20:22.663Z,33.60
2022-09-04T08:23:24.561Z,33.67
2022-09-04T08:26:14.503Z,33.33
2022-09-04T08:29:03.323Z,31.92
2022-09-04T08:31:54.027Z,33.22
2022-09-04T08:34:27.453Z,34.20
2022-09-04T08:37:09.768Z,31.35
2022-09-04T08:39:46.468Z,32.53
2022-09-04T08:42:45.955Z,34.42
2022-09-04T08:45:22.320Z,28.48
2022-09-04T08:48:22.311Z,25.58
2022-09-04T08:50:51.675Z,30.55
2022-09-04T08:53:48.521Z,29.67
2022-09-04T08:56:20.537Z,25.17
2022-09-04T08:59:33.304Z,25.33
2022-09-04T09:02:28.701Z,25.40
2022-09-04T09:05:33.897Z,23.35
2022-09-04T09:08:46.264Z,26.58
2022-09-04T09:11:19.724Z,23.70
2022-09-04T09:14:03.998Z,22.65
2022-09-04T09:17:12.546Z,25.30
2022-09-04T09:19:52.074Z,22.17
2022-09-04T09:22:57.622Z,24.77
2022-09-04T09:25:43.952Z,23.83
2022-09-04T09:28:29.911Z,24.77
2022-09-04T09:31:03.386Z,25.60
2022-09-04T09:33:37.662Z,25.88
2022-09-04T09:36:29.964Z,24.98
2022-09-04T09:39:31.453Z,23.10
2022-09-04T09:42:13.941Z,26.70
2022-09-04T09:45:24.885Z,22.13
2022-09-04T09:48:11.816Z,23.97
2022-09-04T09:50:59.615Z,23.05
2022-09-04T09:53:47.529Z,23.15
2022-09-04T09:56:21.372Z,24.15
2022-09-04T09:59:10.343Z,21.95
2022-09-04T10:02:13.877Z,18.13
2022-09-04T10:04:47.187Z,19.52
2022-09-04T10:07:49.705Z,21.13
2022-09-04T10:11:08.420Z,18.52
2022-09-04T10:14:04.905Z,21.13
2022-09-04T10:17:00.628Z,21.38
2022-09-04T10:19:39.335Z,21.75
2022-09-04T10:22:54.477Z,23.10
2022-09-04T10:25:28.614Z,23.95
2022-09-04T10:28:14.120Z,20.75
2022-09-04T10:31:01.986Z,22.83
2022-09-04T10:34:08.212Z,21.25
2022-09-04T10:37:06.025Z,20.80
2022-09-04T10:40:06.552Z,18.75
2022-09-04T10:42:52.762Z,20.60
2022-09-04T10:45:58.964Z,18.25
2022-09-04T10:48:28.677Z,18.08
2022-09-04T10:51:05.719Z,17.25
2022-09-04T10:53:53.170Z,14.98
2022-09-04T10:56:44.029Z,15.00
2022-09-04T10:59:31.073Z,15.02
2022-09-04T11:02:44.128Z,13.93
2022-09-04T11:05:36.598Z,15.60
2022-09-04T11:08:52.716Z,16.40
2022-09-04T11:11:23.159Z,16.20
2022-09-04T11:14:19.067Z,17.70
2022-09-04T11:16:58.786Z,16.20
2022-09-04T11:19:35.290Z,16.13
2022-09-04T11:22:24.046Z,14.27
2022-09-04T11:24:55.745Z,16.67
2022-09-04T11:27:49.309Z,14.40
2022-09-04T11:30:50.092Z,17.95
2022-09-04T11:33:49.808Z,14.57
2022-09-04T11:36:35.907Z,17.40
2022-09-04T11:39:21.751Z,16.73
2022-09-04T11:42:03.870Z,13.57
2022-09-04T11:45:00.616Z,13.50
2022-09-04T11:47:34.998Z,11.52
2022-09-04T11:50:20.446Z,14.30
2022-09-04T11:52:58.026Z,16.35
2022-09-04T11:55:44.131Z,13.70
2022-09-04T11:58:29.241Z,12.65
2022-09-04T12:01:25.595Z,15.95
2022-09-04T12:03:59.239Z,15.80
2022-09-04T12:06:45.659Z,14.35
2022-09-04T12:09:40.441Z,16.00
2022-09-04T12:12:57.434Z,17.58
2022-09-04T12:15:38.509Z,16.70
2022-09-04T12:18:24.809Z,14.27
2022-09-04T12:21:20.273Z,13.45
2022-09-04T12:24:06.139Z,13.77
2022-09-04T12:26:51.578Z,12.18
2022-09-04T12:29:35.547Z,16.27
2022-09-04T12:32:22.056Z,14.40
2022-09-04T12:35:06.679Z,12.30
2022-09-04T12:38:01.890Z,12.50
2022-09-04T12:40:32.808Z,12.63
2022-09-04T12:43:16.467Z,12.43
2022-09-04T12:46:12.737Z,8.55
2022-09-04T12:49:02.217Z,7.90
2022-09-04T12:51:51.332Z,7.78
2022-09-04T12:54:55.469Z,7.15
2022-09-04T12:57:38.388Z,9.13
2022-09-04T13:00:12.696Z,8.60
2022-09-04T13:03:04.915Z,8.57
2022-09-04T13:05:46.797Z,8.98
2022-09-04T13:08:48.535Z,10.15
2022-09-04T13:11:37.156Z,10.75
2022-09-04T13:14:20.334Z,12.30
2022-09-04T13:17:15.612Z,9.05
2022-09-04T13:20:06.028Z,8.25
2022-09-04T13:22:57.795Z,8.50
2022-09-04T13:25:43.618Z,8.15
2022-09-04T13:28:48.205Z,7.15
2022-09-04T13:31:19.225Z,6.30
2022-09-04T13:34:02.940Z,7.38
2022-09-04T13:37:04.392Z,7.65
2022-09-04T13:39:44.444Z,8.73
2022-09-04T13:42:33.953Z,7.28
2022-09-04T13:45:19.435Z,6.30
2022-09-04T13:48:08.811Z,5.78
2022-09-04T13:50:38.652Z,7.72
2022-09-04T13:53:37.371Z,7.30
2022-09-04T13:56:14.377Z,7.32
2022-09-04T13:58:51.474Z,6.00
2022-09-04T14:01:25.616Z,5.60
2022-09-04T14:04:01.455Z,5.72
2022-09-04T14:06:32.292Z,4.00
2022-09-04T14:09:05.639Z,4.35
2022-09-04T14:12:07.218Z,4.30
2022-09-04T14:17:07.212Z,4.38
2022-09-04T14:19:35.802Z,4.28
2022-09-04T14:22:15.080Z,4.22
2022-09-04T14:25:26.560Z,4.80
2022-09-04T14:28:11.314Z,3.60
2022-09-04T14:31:10.414Z,4.97
2022-09-04T14:33:51.274Z,3.47
2022-09-04T14:36:27.842Z,3.28
2022-09-04T14:39:13.671Z,3.05
2022-09-04T14:41:54.574Z,2.70
2022-09-04T14:44:39.506Z,3.22
2022-09-04T14:47:16.650Z,2.90
2022-09-04T14:49:51.224Z,2.88
2022-09-04T14:52:35.518Z,2.33
2022-09-04T14:55:15.287Z,2.33
2022-09-04T14:57:50.490Z,2.50
2022-09-04T15:00:20.730Z,2.30
2022-09-04T15:02:57.135Z,2.70
2022-09-04T15:05:48.566Z,2.08
2022-09-04T15:08:40.186Z,2.55
2022-09-04T15:11:13.270Z,2.17
2022-09-04T15:13:46.794Z,2.30
2022-09-04T15:16:21.629Z,2.70
2022-09-04T15:19:08.890Z,2.13
2022-09-04T15:21:50.494Z,2.20
2022-09-04T15:24:26.532Z,2.90
2022-09-04T15:27:10.781Z,2.60
2022-09-04T15:29:38.452Z,2.70
2022-09-04T15:32:14.245Z,2.55
2022-09-04T15:34:42.385Z,2.42
2022-09-04T15:37:25.859Z,2.10
2022-09-04T15:40:13.945Z,2.13
2022-09-04T15:42:46.799Z,1.85
2022-09-04T15:45:24.639Z,1.85
2022-09-04T15:48:28.012Z,2.00
2022-09-04T15:51:22.636Z,1.63
2022-09-04T15:54:21.759Z,2.30
2022-09-04T15:56:52.147Z,2.42
2022-09-04T15:59:47.562Z,2.28
2022-09-04T16:02:36.242Z,2.03
2022-09-04T16:05:21.774Z,1.70
2022-09-04T16:08:20.567Z,1.70
2022-09-04T16:11:11.747Z,1.77
2022-09-04T16:13:58.681Z,2.00
2022-09-04T16:16:35.396Z,2.30
2022-09-04T16:19:15.248Z,2.17
2022-09-04T16:24:47.041Z,3.17
2022-09-04T16:27:19.995Z,1.98
2022-09-04T16:30:01.558Z,1.60
2022-09-04T16:32:34.171Z,1.63
2022-09-04T16:35:12.495Z,1.55
2022-09-04T16:37:42.835Z,1.60
2022-09-04T16:40:34.441Z,1.90
2022-09-04T16:43:16.445Z,1.90
2022-09-04T16:45:52.321Z,2.25
2022-09-04T16:48:35.027Z,1.77
2022-09-04T16:51:39.909Z,1.85
2022-09-04T16:54:33.024Z,1.95
2022-09-04T16:57:12.028Z,2.45
2022-09-04T17:02:44.914Z,2.65
2022-09-04T17:05:35.110Z,2.40
2022-09-04T17:08:10.298Z,2.50
2022-09-04T17:10:46.503Z,2.58
2022-09-04T17:13:38.028Z,2.35
2022-09-04T17:16:19.858Z,3.17
2022-09-04T17:19:14.239Z,2.55
2022-09-04T17:28:54.335Z,3.30
2022-09-04T17:29:15.035Z,2.95
2022-09-04T17:29:34.970Z,2.60
2022-09-04T17:32:30.581Z,2.97
2022-09-04T17:40:37.721Z,3.55
2022-09-04T17:40:39.313Z,3.30
2022-09-04T17:41:55.891Z,4.07
2022-09-04T17:44:55.414Z,3.70
2022-09-04T17:47:33.715Z,3.45
2022-09-04T17:50:02.245Z,4.10
2022-09-04T17:52:38.043Z,3.58
2022-09-04T17:55:11.305Z,3.67
2022-09-04T17:57:57.563Z,4.60
2022-09-04T18:00:33.499Z,5.22
2022-09-04T18:03:23.562Z,5.55
2022-09-04T18:06:03.078Z,6.10
2022-09-04T18:08:48.375Z,5.97
2022-09-04T18:11:28.998Z,4.88
2022-09-04T18:14:11.209Z,5.75
2022-09-04T18:17:13.070Z,5.82
2022-09-04T18:19:43.522Z,7.07
2022-09-04T18:22:26.953Z,6.65
2022-09-04T18:25:17.285Z,7.50
2022-09-04T18:28:12.089Z,7.68
2022-09-04T18:37:11.022Z,7.28
2022-09-04T18:37:19.366Z,7.90
2022-09-04T18:37:46.301Z,7.03
2022-09-04T18:40:43.704Z,7.70
2022-09-04T18:50:25.473Z,8.40
2022-09-04T18:50:32.731Z,10.50
2022-09-04T18:50:33.995Z,12.48
2022-09-04T18:52:06.241Z,23.13
2022-09-04T18:54:48.826Z,45.40
2022-09-04T18:57:48.105Z,13.57
2022-09-04T19:00:24.213Z,16.77
2022-09-04T19:03:15.912Z,21.25
2022-09-04T19:05:46.825Z,19.85
2022-09-04T19:08:21.861Z,22.85
2022-09-04T19:11:01.257Z,12.85
2022-09-04T19:13:54.008Z,11.27
2022-09-04T19:16:36.678Z,10.70
2022-09-04T19:19:23.505Z,8.43
2022-09-04T19:22:12.391Z,9.18
2022-09-04T19:25:01.265Z,8.57
2022-09-04T19:27:35.952Z,9.57
2022-09-04T19:30:24.008Z,9.00
2022-09-04T19:33:23.542Z,9.10
2022-09-04T19:36:17.347Z,9.55
2022-09-04T19:46:02.918Z,9.77
2022-09-04T19:46:08.897Z,9.05
2022-09-04T19:46:13.318Z,10.20
2022-09-04T19:47:56.318Z,9.73
2022-09-04T19:53:22.876Z,9.93
2022-09-04T19:53:42.636Z,9.85
2022-09-04T19:57:32.626Z,9.73
2022-09-04T19:59:47.831Z,10.18
2022-09-04T20:02:44.308Z,13.20
2022-09-04T20:05:26.799Z,14.65
2022-09-04T20:08:18.231Z,19.83
2022-09-04T20:13:29.833Z,16.13
2022-09-04T20:16:28.915Z,22.40
2022-09-04T20:19:28.095Z,12.82
2022-09-04T20:22:16.791Z,12.43
2022-09-04T20:25:30.110Z,13.45
2022-09-04T20:28:14.262Z,14.48
2022-09-04T20:30:47.889Z,17.10
2022-09-04T20:33:24.319Z,16.95
2022-09-04T20:36:04.694Z,15.65
2022-09-04T20:38:41.050Z,16.00
2022-09-04T20:41:31.937Z,15.43
2022-09-04T20:44:23.893Z,15.10
2022-09-04T20:47:11.531Z,14.52
2022-09-04T20:53:05.873Z,15.82
2022-09-04T20:54:01.403Z,15.68
2022-09-04T20:59:48.397Z,15.75
2022-09-04T21:03:07.690Z,15.57
2022-09-04T21:03:28.215Z,15.73
2022-09-04T21:05:57.009Z,15.65
2022-09-04T21:08:53.651Z,16.73
2022-09-04T21:11:42.469Z,17.27
2022-09-04T21:14:17.107Z,17.55
2022-09-04T21:17:35.204Z,17.42
2022-09-04T21:20:11.349Z,17.67
2022-09-04T21:22:52.693Z,18.95
2022-09-04T21:25:45.985Z,18.23
2022-09-04T21:28:13.436Z,17.92
2022-09-04T21:30:49.931Z,16.83
2022-09-04T21:33:39.873Z,17.02
2022-09-04T21:36:30.640Z,17.45
2022-09-04T21:39:07.119Z,17.42
2022-09-04T21:41:43.261Z,17.38
2022-09-04T21:44:34.595Z,17.83
2022-09-04T21:47:28.321Z,18.63
2022-09-04T21:50:35.543Z,17.88
2022-09-04T21:53:18.927Z,17.90
2022-09-04T22:00:08.003Z,18.33
2022-09-04T22:02:40.621Z,18.50
2022-09-04T22:02:54.394Z,18.25
2022-09-04T22:05:46.761Z,20.05
2022-09-04T22:13:18.857Z,19.85
2022-09-04T22:13:39.073Z,20.63
2022-09-04T22:14:25.877Z,21.50
2022-09-04T22:17:22.501Z,22.05
2022-09-04T22:19:58.899Z,22.13
2022-09-04T22:22:57.287Z,23.08
2022-09-04T22:26:23.350Z,22.83
